createdAt,value
2023-04-26T00:02:27.443Z,61.74
2023-04-26T00:05:02.255Z,61.89
2023-04-26T00:07:37.973Z,61.89
2023-04-26T00:10:12.176Z,62.00
2023-04-26T00:12:45.160Z,61.81
2023-04-26T00:15:17.997Z,61.86
2023-04-26T00:17:52.191Z,62.14
2023-04-26T00:20:25.098Z,62.31
2023-04-26T00:22:58.219Z,62.33
2023-04-26T00:25:31.210Z,62.57
2023-04-26T00:28:04.052Z,62.60
2023-04-26T00:30:37.703Z,62.94
2023-04-26T00:33:11.863Z,63.10
2023-04-26T00:35:44.641Z,63.40
2023-04-26T00:38:17.416Z,63.59
2023-04-26T00:40:50.729Z,63.55
2023-04-26T00:43:23.544Z,63.69
2023-04-26T00:45:56.481Z,63.64
2023-04-26T00:48:31.510Z,63.85
2023-04-26T00:51:05.594Z,63.61
2023-04-26T00:53:38.517Z,63.67
2023-04-26T00:56:12.714Z,63.43
2023-04-26T00:58:46.362Z,63.37
2023-04-26T01:01:19.727Z,63.10
2023-04-26T01:03:54.165Z,63.10
2023-04-26T01:06:29.507Z,62.92
2023-04-26T01:09:05.116Z,62.78
2023-04-26T01:11:38.778Z,62.58
2023-04-26T01:14:12.928Z,62.18
2023-04-26T01:16:47.631Z,62.02
2023-04-26T01:19:22.192Z,61.77
2023-04-26T01:21:55.003Z,61.86
2023-04-26T01:24:29.391Z,61.69
2023-04-26T01:27:04.143Z,61.50
2023-04-26T01:29:37.183Z,61.61
2023-04-26T01:32:10.941Z,61.28
2023-04-26T01:34:43.766Z,61.38
2023-04-26T01:37:17.082Z,61.21
2023-04-26T01:39:51.520Z,61.14
2023-04-26T01:42:26.032Z,61.24
2023-04-26T01:44:58.897Z,61.31
2023-04-26T01:47:31.732Z,61.04
2023-04-26T01:50:04.858Z,61.11
2023-04-26T01:52:37.661Z,61.10
2023-04-26T01:55:11.964Z,61.14
2023-04-26T01:57:46.686Z,61.10
2023-04-26T02:00:20.610Z,61.11
2023-04-26T02:02:55.898Z,61.29
2023-04-26T02:05:29.462Z,61.25
2023-04-26T02:08:02.580Z,61.43
2023-04-26T02:10:37.021Z,61.47
2023-04-26T02:13:09.935Z,61.39
2023-04-26T02:15:42.802Z,61.45
2023-04-26T02:18:15.817Z,61.73
2023-04-26T02:20:48.790Z,61.72
2023-04-26T02:23:21.603Z,61.90
2023-04-26T02:25:56.111Z,61.87
2023-04-26T02:28:29.155Z,61.92
2023-04-26T02:31:03.562Z,61.94
2023-04-26T02:33:36.937Z,61.96
2023-04-26T02:36:10.113Z,62.08
2023-04-26T02:38:42.918Z,62.09
2023-04-26T02:41:17.134Z,62.23
2023-04-26T02:43:49.959Z,62.15
2023-04-26T02:46:22.936Z,62.16
2023-04-26T02:48:55.836Z,62.28
2023-04-26T02:51:29.096Z,62.33
2023-04-26T02:54:03.789Z,62.24
2023-04-26T02:56:39.558Z,62.52
2023-04-26T02:59:12.394Z,62.69
2023-04-26T03:01:45.300Z,62.60
2023-04-26T03:04:18.415Z,62.71
2023-04-26T03:06:51.731Z,62.70
2023-04-26T03:09:24.752Z,62.86
2023-04-26T03:11:59.617Z,62.82
2023-04-26T03:14:33.542Z,63.00
2023-04-26T03:17:06.564Z,63.17
2023-04-26T03:19:39.955Z,63.08
2023-04-26T03:22:16.131Z,63.21
2023-04-26T03:24:49.161Z,63.23
2023-04-26T03:27:23.810Z,63.43
2023-04-26T03:29:56.938Z,63.49
2023-04-26T03:32:29.919Z,63.44
2023-04-26T03:35:02.825Z,63.60
2023-04-26T03:37:35.782Z,63.62
2023-04-26T03:40:12.753Z,63.47
2023-04-26T03:42:46.879Z,63.25
2023-04-26T03:45:21.257Z,63.48
2023-04-26T03:47:54.197Z,63.60
2023-04-26T03:50:27.393Z,63.80
2023-04-26T03:53:00.297Z,63.86
2023-04-26T03:55:33.149Z,63.99
2023-04-26T03:58:08.201Z,64.10
2023-04-26T04:00:42.317Z,64.00
2023-04-26T04:03:15.075Z,63.54
2023-04-26T04:05:48.002Z,63.90
2023-04-26T04:08:20.827Z,63.88
2023-04-26T04:10:53.654Z,64.15
2023-04-26T04:13:27.857Z,64.17
2023-04-26T04:16:01.482Z,64.07
2023-04-26T04:18:34.435Z,64.07
2023-04-26T04:21:07.364Z,64.15
2023-04-26T04:23:40.349Z,64.14
2023-04-26T04:26:16.262Z,64.08
2023-04-26T04:28:52.085Z,64.09
2023-04-26T04:31:26.058Z,64.08
2023-04-26T04:33:59.185Z,63.75
2023-04-26T04:36:32.418Z,63.88
2023-04-26T04:39:06.004Z,63.66
2023-04-26T04:41:40.142Z,63.57
2023-04-26T04:44:15.688Z,63.40
2023-04-26T04:46:49.510Z,63.25
2023-04-26T04:49:22.509Z,63.18
2023-04-26T04:51:55.584Z,63.19
2023-04-26T04:54:28.431Z,63.05
2023-04-26T04:57:01.880Z,62.94
2023-04-26T04:59:36.470Z,62.84
2023-04-26T05:02:10.432Z,62.83
2023-04-26T05:04:43.657Z,62.76
2023-04-26T05:07:18.499Z,62.58
2023-04-26T05:09:51.527Z,62.41
2023-04-26T05:12:24.691Z,62.14
2023-04-26T05:14:59.057Z,62.27
2023-04-26T05:17:32.831Z,62.05
2023-04-26T05:20:11.277Z,61.82
2023-04-26T05:22:44.498Z,61.60
2023-04-26T05:25:19.266Z,61.33
2023-04-26T05:27:56.057Z,61.19
2023-04-26T05:31:02.848Z,60.72
2023-04-26T05:33:54.142Z,60.63
2023-04-26T05:36:35.699Z,60.36
2023-04-26T05:39:08.908Z,60.19
2023-04-26T05:41:42.429Z,60.02
2023-04-26T05:44:15.881Z,59.82
2023-04-26T05:46:50.669Z,59.81
2023-04-26T05:49:23.499Z,59.38
2023-04-26T05:51:56.828Z,59.28
2023-04-26T05:54:29.753Z,59.10
2023-04-26T05:57:03.456Z,59.02
2023-04-26T05:59:37.453Z,58.70
2023-04-26T06:02:12.623Z,58.36
2023-04-26T06:04:46.395Z,58.13
2023-04-26T06:07:22.281Z,58.26
2023-04-26T06:09:55.153Z,57.91
2023-04-26T06:12:31.537Z,57.64
2023-04-26T06:15:05.522Z,57.61
2023-04-26T06:17:41.653Z,56.87
2023-04-26T06:20:15.477Z,56.80
2023-04-26T06:22:49.167Z,56.74
2023-04-26T06:25:22.249Z,56.50
2023-04-26T06:27:55.145Z,56.00
2023-04-26T06:30:28.084Z,55.30
2023-04-26T06:33:02.597Z,55.05
2023-04-26T06:35:41.404Z,54.35
2023-04-26T06:38:15.455Z,53.73
2023-04-26T06:40:48.384Z,53.60
2023-04-26T06:43:21.531Z,53.37
2023-04-26T06:46:12.789Z,52.60
2023-04-26T06:48:47.223Z,52.24
2023-04-26T06:51:20.024Z,52.43
2023-04-26T06:53:53.629Z,52.29
2023-04-26T06:56:26.447Z,52.78
2023-04-26T06:59:01.427Z,51.56
2023-04-26T07:01:35.284Z,51.39
2023-04-26T07:04:10.789Z,51.42
2023-04-26T07:06:43.902Z,50.74
2023-04-26T07:09:16.847Z,50.56
2023-04-26T07:11:49.757Z,50.71
2023-04-26T07:14:22.733Z,50.65
2023-04-26T07:16:55.535Z,50.25
2023-04-26T07:19:29.707Z,50.37
2023-04-26T07:22:02.648Z,50.47
2023-04-26T07:24:35.513Z,50.13
2023-04-26T07:27:08.350Z,50.06
2023-04-26T07:29:41.177Z,49.58
2023-04-26T07:32:14.268Z,49.66
2023-04-26T07:34:48.459Z,49.54
2023-04-26T07:37:21.376Z,48.98
2023-04-26T07:39:54.250Z,49.09
2023-04-26T07:42:27.117Z,48.35
2023-04-26T07:44:59.927Z,48.45
2023-04-26T07:47:32.808Z,48.55
2023-04-26T07:50:08.623Z,48.21
2023-04-26T07:52:46.824Z,47.60
2023-04-26T07:55:19.876Z,46.80
2023-04-26T07:57:52.776Z,46.48
2023-04-26T08:00:25.803Z,46.53
2023-04-26T08:02:58.773Z,47.27
2023-04-26T08:05:33.404Z,46.94
2023-04-26T08:08:06.731Z,46.92
2023-04-26T08:10:41.735Z,46.31
2023-04-26T08:13:14.572Z,45.88
2023-04-26T08:15:47.627Z,45.62
2023-04-26T08:18:20.473Z,45.31
2023-04-26T08:20:55.327Z,44.86
2023-04-26T08:23:28.360Z,42.93
2023-04-26T08:26:01.470Z,41.80
2023-04-26T08:28:35.785Z,40.77
2023-04-26T08:31:10.164Z,40.88
2023-04-26T08:33:43.283Z,41.55
2023-04-26T08:36:17.458Z,41.89
2023-04-26T08:38:50.466Z,41.97
2023-04-26T08:41:24.901Z,40.28
2023-04-26T08:43:58.766Z,38.27
2023-04-26T08:46:37.620Z,35.76
2023-04-26T08:49:19.897Z,35.19
2023-04-26T08:51:55.710Z,36.26
2023-04-26T08:54:29.647Z,36.67
2023-04-26T08:57:03.195Z,38.34
2023-04-26T08:59:38.061Z,39.30
2023-04-26T09:02:12.449Z,39.71
2023-04-26T09:04:46.892Z,39.71
2023-04-26T09:07:23.316Z,36.46
2023-04-26T09:09:58.839Z,35.72
2023-04-26T09:12:31.881Z,34.00
2023-04-26T09:15:07.209Z,31.59
2023-04-26T09:17:42.089Z,29.97
2023-04-26T09:20:23.343Z,27.77
2023-04-26T09:23:07.320Z,27.09
2023-04-26T09:25:40.313Z,25.86
2023-04-26T09:28:23.537Z,26.75
2023-04-26T09:30:56.419Z,28.75
2023-04-26T09:33:29.264Z,29.82
2023-04-26T09:36:12.977Z,31.21
2023-04-26T09:38:47.148Z,32.01
2023-04-26T09:41:20.025Z,30.93
2023-04-26T09:43:53.824Z,28.88
2023-04-26T09:46:26.778Z,27.36
2023-04-26T09:49:03.716Z,25.62
2023-04-26T09:51:36.707Z,26.58
2023-04-26T09:54:10.942Z,28.79
2023-04-26T09:56:59.892Z,30.52
2023-04-26T09:59:41.038Z,31.99
2023-04-26T10:02:19.338Z,32.63
2023-04-26T10:04:53.971Z,32.53
2023-04-26T10:07:27.222Z,32.89
2023-04-26T10:10:02.138Z,33.58
2023-04-26T10:12:35.689Z,33.88
2023-04-26T10:15:10.215Z,33.51
2023-04-26T10:17:43.187Z,31.37
2023-04-26T10:20:18.814Z,29.31
2023-04-26T10:22:55.045Z,28.55
2023-04-26T10:25:37.577Z,28.84
2023-04-26T10:28:10.774Z,29.04
2023-04-26T10:30:56.442Z,30.62
2023-04-26T10:33:29.363Z,31.49
2023-04-26T10:36:08.095Z,29.82
2023-04-26T10:38:42.989Z,30.09
2023-04-26T10:41:35.202Z,30.44
2023-04-26T10:44:40.143Z,31.09
2023-04-26T10:47:25.099Z,31.16
2023-04-26T10:50:09.296Z,30.88
2023-04-26T10:53:06.891Z,31.29
2023-04-26T10:55:39.998Z,32.78
2023-04-26T10:58:31.162Z,33.34
2023-04-26T11:01:08.344Z,33.79
2023-04-26T11:03:42.515Z,33.38
2023-04-26T11:06:17.469Z,31.73
2023-04-26T11:08:50.535Z,30.97
2023-04-26T11:11:29.810Z,30.54
2023-04-26T11:14:04.641Z,30.93
2023-04-26T11:16:38.405Z,31.30
2023-04-26T11:19:11.349Z,31.49
2023-04-26T11:21:44.222Z,31.71
2023-04-26T11:24:17.213Z,32.34
2023-04-26T11:26:52.898Z,32.59
2023-04-26T11:29:27.433Z,32.24
2023-04-26T11:32:01.430Z,32.38
2023-04-26T11:34:35.233Z,32.20
2023-04-26T11:37:09.090Z,32.69
2023-04-26T11:39:42.034Z,33.23
2023-04-26T11:42:14.916Z,33.11
2023-04-26T11:44:52.576Z,33.35
2023-04-26T11:47:30.686Z,34.38
2023-04-26T11:50:04.378Z,34.70
2023-04-26T11:52:37.193Z,34.70
2023-04-26T11:55:10.953Z,34.78
2023-04-26T11:57:43.648Z,34.99
2023-04-26T12:00:20.145Z,35.59
2023-04-26T12:02:53.764Z,35.19
2023-04-26T12:05:27.602Z,35.45
2023-04-26T12:08:01.514Z,35.61
2023-04-26T12:10:37.096Z,35.79
2023-04-26T12:13:09.961Z,35.83
2023-04-26T12:15:44.173Z,35.54
2023-04-26T12:18:17.383Z,35.07
2023-04-26T12:20:51.766Z,34.88
2023-04-26T12:23:24.604Z,35.07
2023-04-26T12:26:02.015Z,34.73
2023-04-26T12:28:34.995Z,34.66
2023-04-26T12:31:09.581Z,33.88
2023-04-26T12:33:42.587Z,33.92
2023-04-26T12:36:15.557Z,34.23
2023-04-26T12:38:48.411Z,34.46
2023-04-26T12:41:21.715Z,34.91
2023-04-26T12:43:54.616Z,35.26
2023-04-26T12:46:28.824Z,35.02
2023-04-26T12:49:01.722Z,35.07
2023-04-26T12:51:34.846Z,34.99
2023-04-26T12:54:07.808Z,35.10
2023-04-26T12:56:44.036Z,35.33
2023-04-26T12:59:17.407Z,35.83
2023-04-26T13:01:51.732Z,35.87
2023-04-26T13:04:24.898Z,35.54
2023-04-26T13:06:58.360Z,35.33
2023-04-26T13:09:31.224Z,34.80
2023-04-26T13:12:04.264Z,34.55
2023-04-26T13:14:41.160Z,35.08
2023-04-26T13:17:15.812Z,35.14
2023-04-26T13:19:49.152Z,34.69
2023-04-26T13:22:22.426Z,34.65
2023-04-26T13:24:55.305Z,34.11
2023-04-26T13:27:31.131Z,34.09
2023-04-26T13:30:04.970Z,33.66
2023-04-26T13:32:39.310Z,33.63
2023-04-26T13:35:13.088Z,33.60
2023-04-26T13:37:46.414Z,33.89
2023-04-26T13:40:26.483Z,33.84
2023-04-26T13:42:59.487Z,33.58
2023-04-26T13:45:35.859Z,33.16
2023-04-26T13:48:10.197Z,33.00
2023-04-26T13:50:43.103Z,33.10
2023-04-26T13:53:16.296Z,32.74
2023-04-26T13:55:49.183Z,32.63
2023-04-26T13:58:22.096Z,32.66
2023-04-26T14:00:54.923Z,32.61
2023-04-26T14:03:29.450Z,32.83
2023-04-26T14:06:02.902Z,32.89
2023-04-26T14:08:35.782Z,32.99
2023-04-26T14:11:09.245Z,33.33
2023-04-26T14:13:42.584Z,33.15
2023-04-26T14:16:15.591Z,33.17
2023-04-26T14:18:49.920Z,33.36
2023-04-26T14:21:22.864Z,33.54
2023-04-26T14:23:56.455Z,33.50
2023-04-26T14:26:29.309Z,34.09
2023-04-26T14:29:02.510Z,33.56
2023-04-26T14:31:35.625Z,33.54
2023-04-26T14:34:09.982Z,33.67
2023-04-26T14:36:42.980Z,33.84
2023-04-26T14:39:16.170Z,34.06
2023-04-26T14:41:49.289Z,34.18
2023-04-26T14:44:24.133Z,34.14
2023-04-26T14:46:57.117Z,34.20
2023-04-26T14:49:33.919Z,34.18
2023-04-26T14:52:06.917Z,34.13
2023-04-26T14:54:39.910Z,34.25
2023-04-26T14:57:12.914Z,34.34
2023-04-26T14:59:45.748Z,34.45
2023-04-26T15:02:18.693Z,34.42
2023-04-26T15:04:53.286Z,34.70
2023-04-26T15:07:31.820Z,34.97
2023-04-26T15:10:07.836Z,34.91
2023-04-26T15:12:40.778Z,34.92
2023-04-26T15:15:14.299Z,34.79
2023-04-26T15:17:49.930Z,35.00
2023-04-26T15:20:24.504Z,35.15
2023-04-26T15:23:01.381Z,35.11
2023-04-26T15:25:38.564Z,35.10
2023-04-26T15:28:11.618Z,35.12
2023-04-26T15:30:44.905Z,34.88
2023-04-26T15:33:18.543Z,34.57
2023-04-26T15:35:53.147Z,34.62
2023-04-26T15:38:26.080Z,34.70
2023-04-26T15:40:59.006Z,34.32
2023-04-26T15:43:31.858Z,34.05
2023-04-26T15:46:04.968Z,33.97
2023-04-26T15:48:37.851Z,33.91
2023-04-26T15:51:12.078Z,33.99
2023-04-26T15:53:44.891Z,33.89
2023-04-26T15:56:18.495Z,33.68
2023-04-26T15:58:51.661Z,34.15
2023-04-26T16:01:24.640Z,34.48
2023-04-26T16:03:57.722Z,34.50
2023-04-26T16:06:32.425Z,34.66
2023-04-26T16:09:17.166Z,34.52
2023-04-26T16:11:57.450Z,34.50
2023-04-26T16:14:31.295Z,34.84
2023-04-26T16:17:05.199Z,34.82
2023-04-26T16:19:38.501Z,34.91
2023-04-26T16:22:12.803Z,35.12
2023-04-26T16:24:45.920Z,34.96
2023-04-26T16:27:22.479Z,35.07
2023-04-26T16:29:55.667Z,35.30
2023-04-26T16:32:30.594Z,35.28
2023-04-26T16:35:04.277Z,35.46
2023-04-26T16:37:42.394Z,35.79
2023-04-26T16:40:15.503Z,36.01
2023-04-26T16:42:48.349Z,36.14
2023-04-26T16:45:21.475Z,36.24
2023-04-26T16:47:54.386Z,36.38
2023-04-26T16:50:27.586Z,36.85
2023-04-26T16:53:02.156Z,36.74
2023-04-26T16:55:35.030Z,36.96
2023-04-26T16:58:09.624Z,37.36
2023-04-26T17:00:44.605Z,37.81
2023-04-26T17:03:18.182Z,38.00
2023-04-26T17:05:51.115Z,37.61
2023-04-26T17:08:27.173Z,38.29
2023-04-26T17:11:00.022Z,38.58
2023-04-26T17:13:33.405Z,38.72
2023-04-26T17:16:07.115Z,38.92
2023-04-26T17:18:39.866Z,38.60
2023-04-26T17:21:12.771Z,39.28
2023-04-26T17:23:46.962Z,39.68
2023-04-26T17:26:19.812Z,39.86
2023-04-26T17:28:52.943Z,40.04
2023-04-26T17:31:25.949Z,40.36
2023-04-26T17:34:02.674Z,40.44
2023-04-26T17:36:37.570Z,40.66
2023-04-26T17:39:12.069Z,40.75
2023-04-26T17:41:45.196Z,41.03
2023-04-26T17:44:18.227Z,41.00
2023-04-26T17:46:51.140Z,40.80
2023-04-26T17:49:25.741Z,40.93
2023-04-26T17:51:58.689Z,40.87
2023-04-26T17:54:32.922Z,41.05
2023-04-26T17:57:07.772Z,41.08
2023-04-26T17:59:40.774Z,41.32
2023-04-26T18:02:13.815Z,41.25
2023-04-26T18:04:47.639Z,41.29
2023-04-26T18:07:22.853Z,41.26
2023-04-26T18:09:57.094Z,41.25
2023-04-26T18:12:30.843Z,41.33
2023-04-26T18:15:03.845Z,40.87
2023-04-26T18:17:37.196Z,41.22
2023-04-26T18:20:11.284Z,41.24
2023-04-26T18:22:44.299Z,41.61
2023-04-26T18:25:18.617Z,41.57
2023-04-26T18:27:51.524Z,41.81
2023-04-26T18:30:24.382Z,41.94
2023-04-26T18:32:57.301Z,42.04
2023-04-26T18:35:30.147Z,42.01
2023-04-26T18:38:04.030Z,42.10
2023-04-26T18:40:38.081Z,41.67
2023-04-26T18:43:11.273Z,42.14
2023-04-26T18:45:44.267Z,42.34
2023-04-26T18:48:17.373Z,42.46
2023-04-26T18:50:51.166Z,42.38
2023-04-26T18:53:24.748Z,42.67
2023-04-26T18:56:01.655Z,42.75
2023-04-26T18:58:34.579Z,43.04
2023-04-26T19:01:07.963Z,42.82
2023-04-26T19:03:41.918Z,43.13
2023-04-26T19:06:19.279Z,43.33
2023-04-26T19:08:52.569Z,43.50
2023-04-26T19:11:26.852Z,43.47
2023-04-26T19:14:02.421Z,43.68
2023-04-26T19:16:35.886Z,43.78
2023-04-26T19:19:08.769Z,43.72
2023-04-26T19:21:41.893Z,43.81
2023-04-26T19:24:14.726Z,43.71
2023-04-26T19:26:48.994Z,44.31
2023-04-26T19:29:21.893Z,44.32
2023-04-26T19:31:59.372Z,44.36
2023-04-26T19:34:36.455Z,44.54
2023-04-26T19:37:09.495Z,44.52
2023-04-26T19:39:42.364Z,44.79
2023-04-26T19:42:16.724Z,44.79
2023-04-26T19:44:49.566Z,44.98
2023-04-26T19:47:22.938Z,45.11
2023-04-26T19:49:57.679Z,45.35
2023-04-26T19:52:30.553Z,45.49
2023-04-26T19:55:03.683Z,45.63
2023-04-26T19:57:37.994Z,45.70
2023-04-26T20:00:12.059Z,45.94
2023-04-26T20:02:46.926Z,46.25
2023-04-26T20:05:19.855Z,46.49
2023-04-26T20:07:52.723Z,46.43
2023-04-26T20:10:25.583Z,46.52
2023-04-26T20:13:00.712Z,46.71
2023-04-26T20:15:34.149Z,46.80
2023-04-26T20:18:07.456Z,47.09
2023-04-26T20:20:40.379Z,47.11
2023-04-26T20:23:13.380Z,47.17
2023-04-26T20:25:49.205Z,47.45
2023-04-26T20:28:24.416Z,47.28
2023-04-26T20:30:59.542Z,47.44
2023-04-26T20:33:32.464Z,47.49
2023-04-26T20:36:05.861Z,47.60
2023-04-26T20:38:41.260Z,47.45
2023-04-26T20:41:14.315Z,47.61
2023-04-26T20:43:48.532Z,47.74
2023-04-26T20:46:21.842Z,47.81
2023-04-26T20:48:55.054Z,47.91
2023-04-26T20:51:33.579Z,47.71
2023-04-26T20:54:06.537Z,47.93
2023-04-26T20:56:39.501Z,48.12
2023-04-26T20:59:13.940Z,48.09
2023-04-26T21:01:46.911Z,47.96
2023-04-26T21:04:20.020Z,48.23
2023-04-26T21:06:53.361Z,48.29
2023-04-26T21:09:26.748Z,48.35
2023-04-26T21:11:59.592Z,48.48
2023-04-26T21:14:33.885Z,48.64
2023-04-26T21:17:06.861Z,48.42
2023-04-26T21:19:39.729Z,48.35
2023-04-26T21:22:12.575Z,48.51
2023-04-26T21:24:45.494Z,48.47
2023-04-26T21:27:18.700Z,48.54
2023-04-26T21:29:52.860Z,48.68
2023-04-26T21:32:25.792Z,48.59
2023-04-26T21:34:58.665Z,48.95
2023-04-26T21:37:31.502Z,48.91
2023-04-26T21:40:05.012Z,48.92
2023-04-26T21:42:37.830Z,48.79
2023-04-26T21:45:13.272Z,48.99
2023-04-26T21:47:46.253Z,48.92
2023-04-26T21:50:19.419Z,48.93
2023-04-26T21:52:52.367Z,49.09
2023-04-26T21:55:25.458Z,48.96
2023-04-26T21:57:58.274Z,49.09
2023-04-26T22:00:32.729Z,49.31
2023-04-26T22:03:05.871Z,49.29
2023-04-26T22:05:38.795Z,49.24
2023-04-26T22:08:11.699Z,49.33
2023-04-26T22:10:44.538Z,49.50
2023-04-26T22:13:17.409Z,49.60
2023-04-26T22:15:51.836Z,49.70
2023-04-26T22:18:25.902Z,49.54
2023-04-26T22:20:58.763Z,49.54
2023-04-26T22:23:32.062Z,49.70
2023-04-26T22:26:04.949Z,49.91
2023-04-26T22:28:37.832Z,50.05
2023-04-26T22:31:12.050Z,50.23
2023-04-26T22:33:45.058Z,50.36
2023-04-26T22:36:18.017Z,50.37
2023-04-26T22:38:51.189Z,50.58
2023-04-26T22:41:24.048Z,50.45
2023-04-26T22:43:56.854Z,50.62
2023-04-26T22:46:31.222Z,50.89
2023-04-26T22:49:04.176Z,50.89
2023-04-26T22:51:36.990Z,50.79
2023-04-26T22:54:09.856Z,51.05
2023-04-26T22:56:42.700Z,51.15
2023-04-26T22:59:15.492Z,51.30
2023-04-26T23:01:49.746Z,51.39
2023-04-26T23:04:22.709Z,51.29
2023-04-26T23:06:55.853Z,51.36
2023-04-26T23:09:28.689Z,51.39
2023-04-26T23:12:02.326Z,51.66
2023-04-26T23:14:35.348Z,51.50
2023-04-26T23:17:12.019Z,51.91
2023-04-26T23:19:44.928Z,51.80
2023-04-26T23:22:17.717Z,52.11
2023-04-26T23:24:50.565Z,51.99
2023-04-26T23:27:24.794Z,52.00
2023-04-26T23:29:59.438Z,52.26
2023-04-26T23:32:33.646Z,52.30
2023-04-26T23:35:07.664Z,52.30
2023-04-26T23:37:40.306Z,51.57
2023-04-26T23:40:14.129Z,52.02
2023-04-26T23:42:46.817Z,51.36
2023-04-26T23:45:20.198Z,52.05
2023-04-26T23:47:54.904Z,52.20
2023-04-26T23:50:36.037Z,52.29
2023-04-26T23:53:09.293Z,52.48
2023-04-26T23:55:43.922Z,52.52
2023-04-26T23:58:19.281Z,52.64
